Time;durP1;ratioP1;P1;durP2;ratioP2;P2;SDS_P1;SDS_P2;PMS_P1;PMS_P2;Temp;Humidity;BMP_temperature;BMP_pressure;BME280_temperature;BME280_humidity;BME280_pressure;Samples;Min_cycle;Max_cycle;Signal;HPM_P1;HPM_P2
2021/10/31 00:01:32;;;;;;;;;;;;;;;4.25;100.00;100496.11;1736354;82;20133;-70
2021/10/31 00:04:00;;;;;;;;;;;;;;;4.26;100.00;100495.11;1736613;81;20118;-70
2021/10/31 00:06:27;;;;;;;;;;;;;;;4.28;100.00;100490.92;1736122;81;20121;-69
2021/10/31 00:08:55;;;;;;;;;;;;;;;4.27;100.00;100493.27;1736774;82;21886;-69
2021/10/31 00:11:22;;;;;;;;;;;;;;;4.28;100.00;100491.73;1736318;82;20203;-69
2021/10/31 00:13:49;;;;;;;;;;;;;;;4.28;100.00;100488.27;1736359;82;20131;-67
2021/10/31 00:16:17;;;;;;;;;;;;;;;4.29;100.00;100490.74;1736248;81;20149;-68
2021/10/31 00:18:44;;;;;;;;;;;;;;;4.28;100.00;100482.44;1736837;82;20160;-68
2021/10/31 00:21:11;;;;;;;;;;;;;;;4.28;100.00;100476.30;1738843;81;21159;-69
2021/10/31 00:23:38;;;;;;;;;;;;;;;4.29;100.00;100480.63;1736326;82;20152;-70
2021/10/31 00:26:04;;;;;;;;;;;;;;;4.28;100.00;100473.13;1736414;82;20114;-69
2021/10/31 00:28:30;;;;;;;;;;;;;;;4.27;100.00;100473.34;1736747;82;20406;-69
2021/10/31 00:30:57;;;;;;;;;;;;;;;4.24;100.00;100463.91;1736389;82;20116;-70
2021/10/31 00:33:23;;;;;;;;;;;;;;;4.21;100.00;100463.45;1736311;82;21138;-71
2021/10/31 00:35:49;;;;;;;;;;;;;;;4.20;100.00;100474.59;1730192;81;20079;-69
2021/10/31 00:38:16;;;;;;;;;;;;;;;4.19;100.00;100471.64;1720735;83;20096;-68
2021/10/31 00:40:44;;;;;;;;;;;;;;;4.17;100.00;100466.20;1717468;82;20109;-70
2021/10/31 00:43:11;;;;;;;;;;;;;;;4.17;100.00;100467.52;1716298;82;20135;-70
2021/10/31 00:45:40;;;;;;;;;;;;;;;4.12;100.00;100456.12;1719921;83;22324;-69
2021/10/31 00:48:07;;;;;;;;;;;;;;;4.10;100.00;100458.15;1720547;82;20426;-68
2021/10/31 00:50:34;;;;;;;;;;;;;;;4.06;100.00;100455.03;1719957;83;20142;-68
2021/10/31 00:53:02;;;;;;;;;;;;;;;4.06;100.00;100459.02;1719674;82;20099;-70
2021/10/31 00:55:29;;;;;;;;;;;;;;;4.03;100.00;100456.75;1707912;83;20194;-67
2021/10/31 00:57:57;;;;;;;;;;;;;;;4.04;100.00;100460.22;1718554;82;21263;-70
2021/10/31 01:00:24;;;;;;;;;;;;;;;4.03;100.00;100458.58;1719023;82;20692;-67
2021/10/31 01:02:51;;;;;;;;;;;;;;;4.04;100.00;100456.23;1721364;83;20129;-69
2021/10/31 01:05:20;;;;;;;;;;;;;;;4.04;100.00;100450.92;1718464;82;20084;-68
2021/10/31 01:08:10;;;;;;;;;;;;;;;4.02;100.00;100449.80;1719420;83;20417;-69
2021/10/31 01:11:02;;;;;;;;;;;;;;;4.02;100.00;100448.47;1692639;84;21142;-70
2021/10/31 01:13:52;;;;;;;;;;;;;;;4.00;100.00;100441.70;1695542;84;20084;-69
2021/10/31 01:16:44;;;;;;;;;;;;;;;4.00;100.00;100442.52;1680870;84;20480;-68
2021/10/31 01:19:35;;;;;;;;;;;;;;;3.99;100.00;100440.04;1662641;86;20141;-68
2021/10/31 01:22:13;;;;;;;;;;;;;;;3.97;100.00;100434.09;1659761;86;20080;-69
2021/10/31 01:24:56;;;;;;;;;;;;;;;3.95;100.00;100438.28;1664517;86;21184;-69
2021/10/31 01:27:35;;;;;;;;;;;;;;;3.94;100.00;100437.95;1653817;85;20159;-68
2021/10/31 01:30:38;;;;;;;;;;;;;;;3.92;100.00;100432.02;1644143;86;20153;-69
2021/10/31 01:33:26;;;;;;;;;;;;;;;3.91;100.00;100433.53;1655244;86;20249;-67
2021/10/31 01:36:07;;;;;;;;;;;;;;;3.90;100.00;100432.72;1698033;83;20125;-67
2021/10/31 01:39:11;;;;;;;;;;;;;;;3.91;100.00;100430.88;1667568;84;21151;-69
2021/10/31 01:41:55;;;;;;;;;;;;;;;3.88;100.00;100422.78;1659505;85;20098;-68
2021/10/31 01:44:42;;;;;;;;;;;;;;;3.82;100.00;100427.50;1677873;85;20175;-69
2021/10/31 01:47:24;;;;;;;;;;;;;;;3.77;100.00;100424.11;1661949;85;20107;-67
2021/10/31 01:49:57;;;;;;;;;;;;;;;3.71;100.00;100421.38;1667410;85;20122;-67
2021/10/31 01:52:27;;;;;;;;;;;;;;;3.63;100.00;100424.45;1660291;85;21917;-67
2021/10/31 01:55:02;;;;;;;;;;;;;;;3.55;100.00;100413.95;1613318;88;20128;-67
2021/10/31 01:57:29;;;;;;;;;;;;;;;3.50;100.00;100410.19;1603451;89;20107;-68
2021/10/31 02:00:03;;;;;;;;;;;;;;;3.44;100.00;100415.24;1613573;87;20142;-68
2021/10/31 02:02:35;;;;;;;;;;;;;;;3.40;100.00;100416.61;1612382;87;20128;-70
2021/10/31 02:05:02;;;;;;;;;;;;;;;3.33;100.00;100405.60;1639411;85;21177;-68
2021/10/31 02:07:29;;;;;;;;;;;;;;;3.29;100.00;100410.98;1644319;85;20090;-67
2021/10/31 02:09:56;;;;;;;;;;;;;;;3.23;100.00;100408.54;1649408;86;20148;-66
2021/10/31 02:12:23;;;;;;;;;;;;;;;3.18;100.00;100403.78;1644321;86;20130;-67
2021/10/31 02:14:49;;;;;;;;;;;;;;;3.14;100.00;100398.55;1648020;85;20097;-68
2021/10/31 02:17:16;;;;;;;;;;;;;;;3.08;100.00;100393.96;1712411;83;21169;-67
2021/10/31 02:19:45;;;;;;;;;;;;;;;2.98;100.00;100398.22;1714106;83;20111;-66
2021/10/31 02:22:18;;;;;;;;;;;;;;;2.95;100.00;100400.43;1713974;83;20096;-67
2021/10/31 02:24:45;;;;;;;;;;;;;;;2.84;100.00;100396.39;1714193;83;20145;-68
2021/10/31 02:27:14;;;;;;;;;;;;;;;2.80;100.00;100395.12;1714356;83;20172;-67
2021/10/31 02:29:48;;;;;;;;;;;;;;;2.75;100.00;100395.67;1714155;83;21153;-67
2021/10/31 02:32:15;;;;;;;;;;;;;;;2.66;100.00;100395.42;1714129;83;20168;-69
2021/10/31 02:34:42;;;;;;;;;;;;;;;2.59;100.00;100390.52;1714028;82;20085;-67
2021/10/31 02:37:09;;;;;;;;;;;;;;;2.54;100.00;100389.73;1719828;83;20081;-67
2021/10/31 02:39:37;;;;;;;;;;;;;;;2.48;100.00;100384.36;1698366;83;20427;-68
2021/10/31 02:42:04;;;;;;;;;;;;;;;2.42;100.00;100388.53;1698305;83;21832;-66
2021/10/31 02:44:31;;;;;;;;;;;;;;;2.36;100.00;100387.94;1732000;82;20405;-68
2021/10/31 02:46:58;;;;;;;;;;;;;;;2.32;100.00;100384.81;1731088;82;20111;-67
2021/10/31 02:49:24;;;;;;;;;;;;;;;2.32;100.00;100380.84;1730633;82;20183;-68
2021/10/31 02:52:06;;;;;;;;;;;;;;;2.27;100.00;100377.09;1730886;83;20099;-68
2021/10/31 02:54:58;;;;;;;;;;;;;;;2.18;100.00;100374.18;1728295;83;21129;-67
2021/10/31 02:57:45;;;;;;;;;;;;;;;2.13;100.00;100368.94;1729537;83;20125;-67
2021/10/31 03:00:13;;;;;;;;;;;;;;;2.08;100.00;100370.45;1729453;82;20095;-67
2021/10/31 03:02:41;;;;;;;;;;;;;;;1.99;100.00;100370.22;1730686;82;20101;-67
2021/10/31 03:05:07;;;;;;;;;;;;;;;2.01;100.00;100366.87;1718281;82;20094;-68
2021/10/31 03:07:36;;;;;;;;;;;;;;;1.97;100.00;100368.25;1667027;85;21175;-65
2021/10/31 03:10:04;;;;;;;;;;;;;;;1.99;100.00;100368.89;1730814;82;20449;-67
2021/10/31 03:12:30;;;;;;;;;;;;;;;1.99;100.00;100370.22;1747934;81;20175;-67
2021/10/31 03:14:57;;;;;;;;;;;;;;;1.98;100.00;100365.91;1741037;81;20098;-69
2021/10/31 03:17:25;;;;;;;;;;;;;;;1.98;100.00;100373.34;1748386;81;20463;-67
2021/10/31 03:19:52;;;;;;;;;;;;;;;1.92;100.00;100370.91;1746175;81;21128;-67
2021/10/31 03:22:18;;;;;;;;;;;;;;;1.93;100.00;100371.73;1749571;80;20122;-69
2021/10/31 03:24:44;;;;;;;;;;;;;;;1.95;100.00;100376.86;1752070;80;20156;-69
2021/10/31 03:27:11;;;;;;;;;;;;;;;1.87;100.00;100373.27;1744135;81;20119;-66
2021/10/31 03:29:38;;;;;;;;;;;;;;;1.85;100.00;100367.33;1746191;80;20583;-69
2021/10/31 03:32:05;;;;;;;;;;;;;;;1.89;100.00;100371.78;1748441;81;21103;-68
2021/10/31 03:34:32;;;;;;;;;;;;;;;1.89;100.00;100372.59;1727719;82;20075;-68
2021/10/31 03:36:58;;;;;;;;;;;;;;;1.81;100.00;100370.50;1738122;81;20095;-69
2021/10/31 03:39:25;;;;;;;;;;;;;;;1.82;100.00;100368.19;1743190;82;20149;-66
2021/10/31 03:41:51;;;;;;;;;;;;;;;1.82;100.00;100363.72;1747125;81;20099;-67
2021/10/31 03:44:19;;;;;;;;;;;;;;;1.80;100.00;100366.22;1745384;82;21171;-67
2021/10/31 03:46:47;;;;;;;;;;;;;;;1.79;100.00;100364.55;1744908;81;20154;-67
2021/10/31 03:49:35;;;;;;;;;;;;;;;1.78;100.00;100370.86;1745330;82;20131;-67
2021/10/31 03:52:02;;;;;;;;;;;;;;;1.75;100.00;100370.71;1758233;80;20072;-68
2021/10/31 03:54:29;;;;;;;;;;;;;;;1.80;100.00;100365.70;1760714;80;20099;-66
2021/10/31 03:56:55;;;;;;;;;;;;;;;1.76;100.00;100368.38;1772812;80;21149;-64
2021/10/31 03:59:22;;;;;;;;;;;;;;;1.72;100.00;100368.42;1756356;80;20187;-67
2021/10/31 04:01:48;;;;;;;;;;;;;;;1.65;100.00;100362.19;1754512;80;20100;-66
2021/10/31 04:04:16;;;;;;;;;;;;;;;1.58;100.00;100361.23;1759147;80;20092;-67
2021/10/31 04:06:43;;;;;;;;;;;;;;;1.59;100.00;100362.87;1759641;80;20148;-66
2021/10/31 04:09:10;;;;;;;;;;;;;;;1.54;100.00;100357.28;1756374;80;21161;-69
2021/10/31 04:11:37;;;;;;;;;;;;;;;1.49;100.00;100360.45;1763448;80;20122;-69
2021/10/31 04:14:03;;;;;;;;;;;;;;;1.45;100.00;100354.70;1762379;80;20183;-67
2021/10/31 04:16:31;;;;;;;;;;;;;;;1.38;100.00;100353.75;1740290;80;20103;-69
2021/10/31 04:18:58;;;;;;;;;;;;;;;1.36;100.00;100353.59;1750067;82;20115;-69
2021/10/31 04:21:25;;;;;;;;;;;;;;;1.29;100.00;100354.27;1749785;82;21165;-67
2021/10/31 04:23:51;;;;;;;;;;;;;;;1.25;100.00;100349.50;1750088;82;20099;-66
2021/10/31 04:26:20;;;;;;;;;;;;;;;1.26;100.00;100343.23;1749795;82;20083;-68
2021/10/31 04:28:46;;;;;;;;;;;;;;;1.21;100.00;100341.61;1750034;82;20123;-67
2021/10/31 04:31:13;;;;;;;;;;;;;;;1.18;100.00;100338.81;1749822;82;20173;-67
2021/10/31 04:33:39;;;;;;;;;;;;;;;1.16;100.00;100343.95;1749888;82;21163;-67
2021/10/31 04:36:07;;;;;;;;;;;;;;;1.07;100.00;100337.36;1749703;82;20134;-66
2021/10/31 04:38:35;;;;;;;;;;;;;;;1.03;100.00;100338.72;1749989;82;20445;-68
2021/10/31 04:41:02;;;;;;;;;;;;;;;1.00;100.00;100343.02;1749996;82;20083;-67
2021/10/31 04:43:28;;;;;;;;;;;;;;;0.96;100.00;100337.77;1749963;82;20447;-67
2021/10/31 04:45:55;;;;;;;;;;;;;;;0.94;100.00;100333.14;1717898;83;21116;-67
2021/10/31 04:48:24;;;;;;;;;;;;;;;0.95;100.00;100332.63;1749338;82;20496;-68
2021/10/31 04:50:52;;;;;;;;;;;;;;;0.95;100.00;100332.63;1746703;82;20123;-67
2021/10/31 04:53:22;;;;;;;;;;;;;;;0.92;100.00;100329.02;1745893;81;20682;-68
2021/10/31 04:55:48;;;;;;;;;;;;;;;0.93;100.00;100328.86;1713362;83;20169;-68
2021/10/31 04:58:15;;;;;;;;;;;;;;;0.98;100.00;100332.28;1707131;83;21135;-68
2021/10/31 05:00:41;;;;;;;;;;;;;;;0.97;100.00;100330.14;1708429;83;20130;-69
2021/10/31 05:03:08;;;;;;;;;;;;;;;0.98;100.00;100329.64;1706922;84;20138;-68
2021/10/31 05:05:35;;;;;;;;;;;;;;;1.02;100.00;100329.13;1706218;84;20158;-69
2021/10/31 05:08:02;;;;;;;;;;;;;;;1.00;100.00;100336.91;1706846;84;20428;-68
2021/10/31 05:10:29;;;;;;;;;;;;;;;1.03;100.00;100344.02;1703091;84;21170;-68
2021/10/31 05:12:55;;;;;;;;;;;;;;;1.07;100.00;100339.19;1708333;84;20733;-67
2021/10/31 05:15:22;;;;;;;;;;;;;;;1.09;100.00;100335.06;1706981;84;20152;-68
2021/10/31 05:17:49;;;;;;;;;;;;;;;1.11;100.00;100332.57;1707479;83;20133;-68
2021/10/31 05:20:18;;;;;;;;;;;;;;;1.16;100.00;100332.05;1705320;84;20142;-69
2021/10/31 05:22:45;;;;;;;;;;;;;;;1.30;100.00;100336.61;1706599;84;21173;-69
2021/10/31 05:25:11;;;;;;;;;;;;;;;1.43;100.00;100330.23;1706307;83;20085;-69
2021/10/31 05:27:40;;;;;;;;;;;;;;;1.58;100.00;100338.75;1700033;84;20409;-68
2021/10/31 05:30:11;;;;;;;;;;;;;;;1.74;100.00;100339.11;1709585;84;20171;-69
2021/10/31 05:32:38;;;;;;;;;;;;;;;1.88;100.00;100341.00;1711853;83;20101;-71
2021/10/31 05:35:06;;;;;;;;;;;;;;;2.02;100.00;100339.41;1709671;84;20668;-69
2021/10/31 05:37:40;;;;;;;;;;;;;;;2.19;100.00;100345.38;1710636;83;20128;-69
2021/10/31 05:40:06;;;;;;;;;;;;;;;2.34;100.00;100342.25;1692438;84;20140;-68
2021/10/31 05:42:33;;;;;;;;;;;;;;;2.51;100.00;100342.41;1715118;83;20192;-69
2021/10/31 05:45:00;;;;;;;;;;;;;;;2.69;100.00;100346.52;1717017;83;20172;-69
2021/10/31 05:47:33;;;;;;;;;;;;;;;2.83;100.00;100347.53;1705554;83;21846;-70
2021/10/31 05:50:00;;;;;;;;;;;;;;;2.98;100.00;100349.16;1704749;84;20435;-68
2021/10/31 05:52:27;;;;;;;;;;;;;;;3.06;100.00;100352.20;1710731;83;20085;-70
2021/10/31 05:54:55;;;;;;;;;;;;;;;3.15;100.00;100355.59;1710631;83;20153;-67
2021/10/31 05:57:27;;;;;;;;;;;;;;;3.28;100.00;100358.39;1715370;83;20135;-69
2021/10/31 05:59:54;;;;;;;;;;;;;;;3.47;100.00;100358.31;1710897;84;21156;-67
2021/10/31 06:02:20;;;;;;;;;;;;;;;3.64;100.00;100355.73;1710207;84;20095;-69
2021/10/31 06:04:46;;;;;;;;;;;;;;;3.81;100.00;100353.66;1711910;83;20182;-70
2021/10/31 06:07:14;;;;;;;;;;;;;;;3.98;100.00;100361.38;1711153;83;20101;-67
2021/10/31 06:09:41;;;;;;;;;;;;;;;4.07;100.00;100361.56;1710512;84;20214;-69
2021/10/31 06:12:10;;;;;;;;;;;;;;;4.07;100.00;100358.39;1709817;83;20175;-69
2021/10/31 06:14:38;;;;;;;;;;;;;;;4.18;100.00;100368.18;1710715;83;20167;-68
2021/10/31 06:17:05;;;;;;;;;;;;;;;4.31;100.00;100368.27;1714117;83;20190;-69
2021/10/31 06:19:34;;;;;;;;;;;;;;;4.46;100.00;100368.20;1712925;82;20102;-70
2021/10/31 06:22:01;;;;;;;;;;;;;;;4.77;100.00;100377.08;1711042;84;20100;-68
2021/10/31 06:24:28;;;;;;;;;;;;;;;4.96;100.00;100373.42;1711164;83;21198;-67
2021/10/31 06:26:54;;;;;;;;;;;;;;;5.23;100.00;100375.17;1709627;82;20485;-69
2021/10/31 06:29:21;;;;;;;;;;;;;;;5.46;100.00;100379.34;1712597;83;20281;-68
2021/10/31 06:31:49;;;;;;;;;;;;;;;5.49;100.00;100387.77;1711364;83;20125;-67
2021/10/31 06:34:16;;;;;;;;;;;;;;;5.84;100.00;100391.65;1710938;83;20185;-68
2021/10/31 06:36:43;;;;;;;;;;;;;;;5.98;100.00;100385.36;1710718;83;21212;-72
2021/10/31 06:39:09;;;;;;;;;;;;;;;6.07;100.00;100397.95;1711582;82;20208;-68
2021/10/31 06:41:36;;;;;;;;;;;;;;;6.27;100.00;100405.15;1712392;83;20167;-67
2021/10/31 06:44:04;;;;;;;;;;;;;;;6.36;100.00;100412.74;1712519;83;20231;-70
2021/10/31 06:46:32;;;;;;;;;;;;;;;6.47;100.00;100407.81;1710706;83;20539;-70
2021/10/31 06:48:59;;;;;;;;;;;;;;;6.57;100.00;100416.25;1710938;83;21966;-70
2021/10/31 06:51:27;;;;;;;;;;;;;;;6.70;100.00;100416.22;1716510;82;20157;-67
2021/10/31 06:53:56;;;;;;;;;;;;;;;6.75;100.00;100416.94;1702714;83;20164;-67
2021/10/31 06:56:27;;;;;;;;;;;;;;;6.75;100.00;100421.75;1692741;83;20268;-72
2021/10/31 06:58:58;;;;;;;;;;;;;;;6.86;100.00;100423.80;1719700;83;20168;-68
2021/10/31 07:01:30;;;;;;;;;;;;;;;6.96;100.00;100416.70;1675774;83;22365;-67
2021/10/31 07:04:06;;;;;;;;;;;;;;;6.94;100.00;100419.27;1712746;83;20087;-66
2021/10/31 07:06:39;;;;;;;;;;;;;;;7.02;100.00;100423.86;1712552;83;20479;-70
2021/10/31 07:09:09;;;;;;;;;;;;;;;7.10;100.00;100420.14;1713613;82;20187;-68
2021/10/31 07:11:39;;;;;;;;;;;;;;;7.16;100.00;100421.98;1715027;82;20473;-68
2021/10/31 07:14:11;;;;;;;;;;;;;;;7.39;100.00;100430.83;1712691;82;21192;-71
2021/10/31 07:16:45;;;;;;;;;;;;;;;7.62;100.00;100435.69;1714009;82;20168;-70
2021/10/31 07:19:17;;;;;;;;;;;;;;;7.66;100.00;100434.73;1760425;80;20416;-67
2021/10/31 07:21:49;;;;;;;;;;;;;;;7.71;100.00;100438.39;1719676;81;20139;-69
2021/10/31 07:24:19;;;;;;;;;;;;;;;7.92;100.00;100445.29;1747122;81;20429;-68
2021/10/31 07:26:50;;;;;;;;;;;;;;;8.10;100.00;100447.75;1755479;80;21198;-68
2021/10/31 07:29:18;;;;;;;;;;;;;;;8.14;100.00;100450.31;1754605;80;20518;-70
2021/10/31 07:31:49;;;;;;;;;;;;;;;8.34;100.00;100446.97;1755066;81;20174;-71
2021/10/31 07:34:26;;;;;;;;;;;;;;;8.25;100.00;100440.77;1752741;81;20522;-69
2021/10/31 07:36:53;;;;;;;;;;;;;;;8.11;100.00;100446.73;1747125;81;20851;-68
2021/10/31 07:39:20;;;;;;;;;;;;;;;8.27;100.00;100434.16;1754614;81;21542;-69
2021/10/31 07:41:46;;;;;;;;;;;;;;;8.62;100.00;100432.36;1751535;81;20169;-68
2021/10/31 07:44:13;;;;;;;;;;;;;;;8.92;100.00;100436.53;1752279;80;20209;-69
2021/10/31 07:46:39;;;;;;;;;;;;;;;9.01;100.00;100430.35;1751709;81;20174;-70
2021/10/31 07:49:06;;;;;;;;;;;;;;;8.89;100.00;100435.64;1752692;81;20471;-67
2021/10/31 07:51:34;;;;;;;;;;;;;;;8.94;100.00;100429.59;1736522;81;21129;-66
2021/10/31 07:54:03;;;;;;;;;;;;;;;8.99;100.00;100435.95;1737106;82;20122;-68
2021/10/31 07:56:34;;;;;;;;;;;;;;;9.03;100.00;100431.48;1743471;81;20151;-67
2021/10/31 07:58:59;;;;;;;;;;;;;;;9.32;100.00;100429.40;1743196;80;20138;-66
2021/10/31 08:01:26;;;;;;;;;;;;;;;9.45;100.00;100420.37;1741052;82;20182;-69
2021/10/31 08:03:54;;;;;;;;;;;;;;;9.36;100.00;100424.43;1741671;82;21147;-67
2021/10/31 08:06:25;;;;;;;;;;;;;;;9.35;100.00;100420.09;1746773;81;20125;-71
2021/10/31 08:08:54;;;;;;;;;;;;;;;9.30;100.00;100425.31;1765345;81;20161;-66
2021/10/31 08:11:21;;;;;;;;;;;;;;;9.27;100.00;100423.89;1718473;81;20160;-70
2021/10/31 08:13:50;;;;;;;;;;;;;;;9.50;100.00;100423.20;1720876;82;20206;-71
2021/10/31 08:16:20;;;;;;;;;;;;;;;9.49;100.00;100418.89;1749653;81;21211;-66
2021/10/31 08:18:46;;;;;;;;;;;;;;;9.70;100.00;100418.95;1686118;84;20238;-69
2021/10/31 08:21:13;;;;;;;;;;;;;;;10.05;100.00;100412.89;1681362;82;20178;-72
2021/10/31 08:23:40;;;;;;;;;;;;;;;10.11;100.00;100423.21;1681286;84;20193;-69
2021/10/31 08:26:06;;;;;;;;;;;;;;;10.12;100.00;100420.81;1683707;82;20127;-67
2021/10/31 08:28:39;;;;;;;;;;;;;;;10.11;100.00;100413.30;1667296;84;21177;-70
2021/10/31 08:31:05;;;;;;;;;;;;;;;10.19;100.00;100410.30;1698159;82;20670;-69
2021/10/31 08:33:41;;;;;;;;;;;;;;;10.42;100.00;100413.56;1703293;82;20203;-68
2021/10/31 08:36:04;;;;;;;;;;;;;;;10.49;100.00;100415.63;1664016;84;20131;-71
2021/10/31 08:38:32;;;;;;;;;;;;;;;10.63;99.37;100401.95;1694634;84;20207;-70
2021/10/31 08:40:59;;;;;;;;;;;;;;;10.69;99.73;100410.44;1695694;84;21182;-69
2021/10/31 08:43:28;;;;;;;;;;;;;;;10.88;99.04;100415.17;1700070;84;20131;-67
2021/10/31 08:45:55;;;;;;;;;;;;;;;11.00;96.47;100409.27;1698252;84;20146;-71
2021/10/31 08:48:22;;;;;;;;;;;;;;;11.27;94.11;100406.03;1694941;84;20474;-71
2021/10/31 08:50:49;;;;;;;;;;;;;;;11.28;93.48;100400.44;1693010;84;20186;-70
2021/10/31 08:53:17;;;;;;;;;;;;;;;11.35;93.36;100408.38;1687065;84;21149;-70
2021/10/31 08:55:47;;;;;;;;;;;;;;;11.31;91.87;100405.33;1676041;84;20119;-69
2021/10/31 08:58:15;;;;;;;;;;;;;;;11.26;92.88;100403.88;1682161;84;20195;-68
2021/10/31 09:00:42;;;;;;;;;;;;;;;11.52;91.84;100399.03;1711307;83;20431;-71
2021/10/31 09:03:09;;;;;;;;;;;;;;;11.65;91.02;100407.34;1712697;83;20173;-68
2021/10/31 09:05:36;;;;;;;;;;;;;;;11.72;88.79;100391.88;1713780;83;21793;-70
2021/10/31 09:08:05;;;;;;;;;;;;;;;11.72;89.13;100393.22;1667955;84;20126;-68
2021/10/31 09:10:31;;;;;;;;;;;;;;;11.62;89.11;100389.81;1654957;86;20146;-71
2021/10/31 09:13:01;;;;;;;;;;;;;;;11.69;89.05;100385.64;1674915;85;20100;-68
2021/10/31 09:15:29;;;;;;;;;;;;;;;11.56;88.68;100386.22;1681370;84;20571;-70
2021/10/31 09:17:57;;;;;;;;;;;;;;;11.75;87.50;100381.44;1692606;84;21152;-69
2021/10/31 09:20:25;;;;;;;;;;;;;;;11.66;86.81;100378.88;1705406;83;20437;-71
2021/10/31 09:22:55;;;;;;;;;;;;;;;11.75;85.24;100373.91;1705618;83;20461;-68
2021/10/31 09:25:25;;;;;;;;;;;;;;;11.71;84.80;100376.78;1705241;84;20100;-75
2021/10/31 09:27:54;;;;;;;;;;;;;;;11.73;85.15;100376.02;1661805;84;20188;-74
2021/10/31 09:30:24;;;;;;;;;;;;;;;11.84;84.05;100374.34;1677072;84;21163;-71
2021/10/31 09:32:53;;;;;;;;;;;;;;;11.91;83.28;100368.31;1711690;83;20215;-70
2021/10/31 09:35:22;;;;;;;;;;;;;;;11.88;83.17;100370.13;1705797;83;20171;-68
2021/10/31 09:37:57;;;;;;;;;;;;;;;11.86;83.43;100373.58;1717386;82;20150;-69
2021/10/31 09:40:22;;;;;;;;;;;;;;;12.10;81.38;100360.30;1680422;83;20235;-71
2021/10/31 09:42:51;;;;;;;;;;;;;;;12.18;80.83;100365.81;1690312;84;21194;-71
2021/10/31 09:45:20;;;;;;;;;;;;;;;12.27;79.85;100356.24;1686525;83;20468;-70
2021/10/31 09:47:56;;;;;;;;;;;;;;;12.32;79.34;100356.35;1706853;83;20467;-70
2021/10/31 09:50:23;;;;;;;;;;;;;;;12.45;79.64;100367.31;1704740;83;20561;-70
2021/10/31 09:52:51;;;;;;;;;;;;;;;12.61;77.21;100373.19;1711318;82;20183;-70
2021/10/31 09:55:21;;;;;;;;;;;;;;;12.62;76.88;100358.67;1713505;83;21148;-70
2021/10/31 09:57:47;;;;;;;;;;;;;;;12.70;76.64;100356.09;1682824;84;20203;-68
2021/10/31 10:00:14;;;;;;;;;;;;;;;12.87;76.33;100363.59;1695555;82;20167;-70
2021/10/31 10:05:21;;;;;;;;;;;;;;;12.77;74.85;100365.34;1699159;82;20204;-68
2021/10/31 10:08:10;;;;;;;;;;;;;;;12.62;74.83;100338.48;1668536;84;21132;-70
2021/10/31 10:10:51;;;;;;;;;;;;;;;12.79;74.02;100344.37;1668013;84;20220;-69
2021/10/31 10:13:22;;;;;;;;;;;;;;;12.83;74.33;100344.12;1639160;87;20111;-69
2021/10/31 10:15:49;;;;;;;;;;;;;;;13.15;71.90;100334.83;1674336;85;20194;-68
2021/10/31 10:18:30;;;;;;;;;;;;;;;13.15;73.31;100334.02;1674893;84;20186;-67
2021/10/31 10:21:29;;;;;;;;;;;;;;;13.31;71.07;100324.27;1690771;83;21134;-67
2021/10/31 10:23:58;;;;;;;;;;;;;;;13.15;70.42;100331.33;1713152;83;20105;-71
2021/10/31 10:26:36;;;;;;;;;;;;;;;13.02;70.70;100306.38;1713284;83;20132;-70
2021/10/31 10:29:20;;;;;;;;;;;;;;;12.93;71.83;100315.97;1713283;83;20122;-68
2021/10/31 10:31:55;;;;;;;;;;;;;;;13.22;70.78;100317.93;1712195;83;20475;-68
2021/10/31 10:34:37;;;;;;;;;;;;;;;13.37;70.95;100315.97;1711103;83;21174;-69
2021/10/31 10:37:08;;;;;;;;;;;;;;;13.47;70.01;100306.66;1712981;83;20723;-68
2021/10/31 10:39:35;;;;;;;;;;;;;;;13.29;69.99;100299.70;1713881;83;20086;-67
2021/10/31 10:42:02;;;;;;;;;;;;;;;13.27;70.27;100307.77;1714191;83;20086;-69
2021/10/31 10:44:35;;;;;;;;;;;;;;;13.35;70.56;100309.20;1713956;83;20121;-66
2021/10/31 10:47:08;;;;;;;;;;;;;;;13.53;68.41;100301.31;1714206;83;21160;-71
2021/10/31 10:49:37;;;;;;;;;;;;;;;13.70;67.76;100310.10;1714107;83;20124;-67
2021/10/31 10:52:19;;;;;;;;;;;;;;;13.70;67.31;100299.31;1714850;83;20077;-70
2021/10/31 10:54:45;;;;;;;;;;;;;;;13.55;67.98;100299.15;1718043;83;20093;-68
2021/10/31 10:57:12;;;;;;;;;;;;;;;13.73;66.11;100288.00;1718824;83;20463;-71
2021/10/31 10:59:40;;;;;;;;;;;;;;;13.56;66.34;100291.35;1716867;83;21226;-69
2021/10/31 11:02:14;;;;;;;;;;;;;;;13.70;66.41;100293.91;1718735;83;20093;-69
2021/10/31 11:04:44;;;;;;;;;;;;;;;13.67;66.29;100285.80;1718783;83;20117;-70
2021/10/31 11:07:10;;;;;;;;;;;;;;;13.70;65.14;100282.58;1718721;83;20149;-70
2021/10/31 11:09:46;;;;;;;;;;;;;;;13.77;65.63;100278.84;1718807;83;20144;-70
2021/10/31 11:12:27;;;;;;;;;;;;;;;13.97;65.44;100276.88;1718414;83;21156;-69
2021/10/31 11:14:56;;;;;;;;;;;;;;;14.11;64.30;100287.48;1718514;83;20463;-67
2021/10/31 11:17:24;;;;;;;;;;;;;;;14.06;64.56;100286.93;1718659;83;20085;-68
2021/10/31 11:19:53;;;;;;;;;;;;;;;14.32;64.09;100282.50;1718114;83;20149;-69
2021/10/31 11:22:21;;;;;;;;;;;;;;;14.30;63.61;100263.04;1718644;83;20427;-68
2021/10/31 11:24:48;;;;;;;;;;;;;;;14.20;63.76;100271.08;1718819;83;21133;-69
2021/10/31 11:27:17;;;;;;;;;;;;;;;14.16;63.22;100268.64;1717791;83;20153;-69
2021/10/31 11:29:45;;;;;;;;;;;;;;;14.04;63.48;100270.72;1718869;83;20165;-67
2021/10/31 11:32:12;;;;;;;;;;;;;;;14.08;63.81;100269.11;1718825;83;20077;-69
2021/10/31 11:34:48;;;;;;;;;;;;;;;14.30;63.25;100267.09;1717903;83;20117;-68
2021/10/31 11:37:18;;;;;;;;;;;;;;;14.74;61.52;100270.86;1717709;83;21115;-66
2021/10/31 11:39:45;;;;;;;;;;;;;;;14.67;60.95;100262.72;1718541;83;20097;-68
2021/10/31 11:42:12;;;;;;;;;;;;;;;14.52;61.43;100263.44;1716916;83;20113;-68
2021/10/31 11:44:59;;;;;;;;;;;;;;;14.57;60.90;100252.68;1718072;83;20399;-68
2021/10/31 11:47:32;;;;;;;;;;;;;;;14.57;61.06;100249.98;1718602;83;20105;-69
2021/10/31 11:50:03;;;;;;;;;;;;;;;14.63;61.40;100253.54;1717612;83;21168;-67
2021/10/31 11:52:46;;;;;;;;;;;;;;;14.63;60.49;100250.84;1715138;83;20455;-66
2021/10/31 11:55:29;;;;;;;;;;;;;;;14.49;60.68;100243.70;1711900;84;20510;-67
2021/10/31 11:58:04;;;;;;;;;;;;;;;14.19;61.25;100239.77;1711689;84;20145;-69
2021/10/31 12:00:32;;;;;;;;;;;;;;;14.23;61.44;100240.85;1711924;84;20848;-67
2021/10/31 12:03:04;;;;;;;;;;;;;;;14.32;60.88;100237.14;1711689;84;21159;-68
2021/10/31 12:05:39;;;;;;;;;;;;;;;14.45;60.82;100240.70;1632302;85;20119;-66
2021/10/31 12:08:08;;;;;;;;;;;;;;;14.49;60.53;100232.91;1640275;87;20082;-70
2021/10/31 12:10:37;;;;;;;;;;;;;;;14.76;59.85;100228.72;1675045;85;20435;-67
2021/10/31 12:13:16;;;;;;;;;;;;;;;14.78;58.93;100231.43;1675222;85;20088;-70
2021/10/31 12:16:05;;;;;;;;;;;;;;;14.70;59.14;100223.01;1681674;84;20110;-69
2021/10/31 12:18:50;;;;;;;;;;;;;;;14.53;59.85;100226.75;1701964;82;20259;-70
2021/10/31 12:21:21;;;;;;;;;;;;;;;14.40;59.25;100220.97;1711325;83;20175;-71
2021/10/31 12:24:03;;;;;;;;;;;;;;;14.24;58.51;100220.89;1713867;83;20175;-72
2021/10/31 12:26:37;;;;;;;;;;;;;;;14.21;58.76;100217.89;1722073;83;20143;-69
2021/10/31 12:29:25;;;;;;;;;;;;;;;14.23;59.39;100208.45;1689171;84;20227;-69
2021/10/31 12:32:04;;;;;;;;;;;;;;;14.33;59.04;100217.98;1681810;84;20171;-71
2021/10/31 12:34:40;;;;;;;;;;;;;;;14.25;58.62;100209.55;1681719;85;20222;-67
2021/10/31 12:37:25;;;;;;;;;;;;;;;14.11;59.47;100202.45;1681925;85;20176;-68
2021/10/31 12:39:59;;;;;;;;;;;;;;;14.03;58.74;100195.66;1680836;85;20212;-72
2021/10/31 12:42:30;;;;;;;;;;;;;;;14.05;59.33;100197.56;1682134;85;20108;-69
2021/10/31 12:45:04;;;;;;;;;;;;;;;14.10;59.57;100202.98;1681837;85;20210;-69
2021/10/31 12:47:39;;;;;;;;;;;;;;;14.24;58.46;100195.24;1681832;85;20203;-66
2021/10/31 12:50:19;;;;;;;;;;;;;;;14.21;59.11;100191.73;1681306;85;20136;-72
2021/10/31 12:52:46;;;;;;;;;;;;;;;14.34;58.59;100186.38;1673367;85;20164;-68
2021/10/31 12:55:16;;;;;;;;;;;;;;;14.34;58.27;100187.73;1665739;86;21812;-67